Time;durP1;ratioP1;P1;durP2;ratioP2;P2;SDS_P1;SDS_P2;PMS_P1;PMS_P2;Temp;Humidity;BMP_temperature;BMP_pressure;BME280_temperature;BME280_humidity;BME280_pressure;Samples;Min_cycle;Max_cycle;Signal;HPM_P1;HPM_P2
2023/11/17 00:02:12;;;;;;;;;;;;;;;16.46;50.49;101142.94;5089433;28;1086;-43
2023/11/17 00:04:38;;;;;;;;;;;;;;;17.53;48.22;101142.66;5088119;28;1023;-42
2023/11/17 00:07:03;;;;;;;;;;;;;;;16.83;49.47;101142.91;5082555;28;1170;-49
2023/11/17 00:09:29;;;;;;;;;;;;;;;16.79;49.99;101138.19;5096143;28;1050;-45
2023/11/17 00:11:54;;;;;;;;;;;;;;;17.74;47.50;101140.78;5084871;28;1181;-48
2023/11/17 00:14:20;;;;;;;;;;;;;;;16.99;49.22;101141.09;5084400;28;1130;-45
2023/11/17 00:16:45;;;;;;;;;;;;;;;16.70;50.07;101155.16;5084013;28;1085;-44
2023/11/17 00:19:11;;;;;;;;;;;;;;;16.54;50.15;101156.19;5100246;28;1976;-45
2023/11/17 00:21:36;;;;;;;;;;;;;;;17.72;47.60;101153.16;5086202;28;1134;-46
2023/11/17 00:24:05;;;;;;;;;;;;;;;17.02;49.14;101154.28;5088276;28;828;-46
2023/11/17 00:26:31;;;;;;;;;;;;;;;16.69;50.04;101158.19;5092944;28;1094;-44
2023/11/17 00:29:00;;;;;;;;;;;;;;;16.75;49.96;101162.63;5079380;28;1042;-47
2023/11/17 00:31:25;;;;;;;;;;;;;;;17.71;47.72;101159.72;5079677;28;1007;-47
2023/11/17 00:33:52;;;;;;;;;;;;;;;17.00;49.23;101152.88;5092336;28;1205;-45
2023/11/17 00:36:17;;;;;;;;;;;;;;;16.69;49.99;101156.28;5088604;28;1414;-47
2023/11/17 00:38:43;;;;;;;;;;;;;;;17.72;47.61;101140.22;5087342;28;1957;-47
2023/11/17 00:41:09;;;;;;;;;;;;;;;17.05;49.27;101134.50;5074848;28;1338;-46
2023/11/17 00:43:36;;;;;;;;;;;;;;;16.73;49.75;101135.44;5091830;28;1102;-45
2023/11/17 00:46:01;;;;;;;;;;;;;;;16.45;50.50;101117.38;5094032;28;1066;-48
2023/11/17 00:48:28;;;;;;;;;;;;;;;17.33;48.87;101124.16;5083750;28;925;-45
2023/11/17 00:50:54;;;;;;;;;;;;;;;17.05;49.21;101115.25;5098540;28;1106;-48
2023/11/17 00:53:23;;;;;;;;;;;;;;;16.70;50.09;101100.25;5068442;28;1472;-46
2023/11/17 00:55:55;;;;;;;;;;;;;;;16.68;50.29;101096.94;5085672;28;1229;-43
2023/11/17 00:58:21;;;;;;;;;;;;;;;17.60;47.75;101090.16;5084892;28;1913;-47
2023/11/17 01:00:46;;;;;;;;;;;;;;;16.86;49.40;101083.88;5097752;28;1010;-46
2023/11/17 01:03:12;;;;;;;;;;;;;;;16.56;50.01;101077.09;5085588;28;1038;-47
2023/11/17 01:05:38;;;;;;;;;;;;;;;16.98;49.47;101078.97;5098727;28;1117;-47
2023/11/17 01:08:03;;;;;;;;;;;;;;;17.51;48.06;101076.09;5098237;28;1097;-45
2023/11/17 01:10:29;;;;;;;;;;;;;;;16.82;49.79;101074.50;5067345;28;1427;-43
2023/11/17 01:12:54;;;;;;;;;;;;;;;16.52;50.20;101065.00;5092473;28;868;-47
2023/11/17 01:15:20;;;;;;;;;;;;;;;17.33;48.79;101068.38;5085586;28;1121;-48
2023/11/17 01:17:46;;;;;;;;;;;;;;;17.13;48.85;101067.22;5085345;28;1910;-48
2023/11/17 01:20:12;;;;;;;;;;;;;;;16.71;49.94;101068.94;5084914;28;1089;-47
2023/11/17 01:22:40;;;;;;;;;;;;;;;16.69;50.09;101068.41;5085760;28;1086;-46
2023/11/17 01:25:06;;;;;;;;;;;;;;;17.62;47.61;101065.94;5091707;28;963;-48
2023/11/17 01:27:32;;;;;;;;;;;;;;;16.85;49.34;101062.97;5073539;28;1122;-48
2023/11/17 01:29:57;;;;;;;;;;;;;;;16.63;50.19;101065.91;5078577;28;1064;-45
2023/11/17 01:32:23;;;;;;;;;;;;;;;16.40;50.36;101068.78;5073779;28;1206;-47
2023/11/17 01:34:48;;;;;;;;;;;;;;;17.59;48.09;101074.75;5078646;28;1158;-48
2023/11/17 01:37:14;;;;;;;;;;;;;;;17.09;49.07;101064.19;5098229;28;1911;-49
2023/11/17 01:39:40;;;;;;;;;;;;;;;16.67;49.94;101064.28;5078037;28;1013;-47
2023/11/17 01:42:05;;;;;;;;;;;;;;;16.64;50.33;101062.88;5078319;28;1059;-45
2023/11/17 01:44:31;;;;;;;;;;;;;;;17.41;48.26;101071.41;5078221;28;983;-43
2023/11/17 01:46:56;;;;;;;;;;;;;;;16.85;49.38;101068.47;5078708;28;1094;-44
2023/11/17 01:49:22;;;;;;;;;;;;;;;16.53;50.26;101063.91;5078223;28;1007;-44
2023/11/17 01:51:49;;;;;;;;;;;;;;;16.47;50.63;101067.75;5091505;28;1051;-45
2023/11/17 01:54:15;;;;;;;;;;;;;;;17.75;47.39;101062.69;5078230;28;1016;-44
2023/11/17 01:56:40;;;;;;;;;;;;;;;16.99;49.26;101041.38;5073248;28;1094;-49
2023/11/17 01:59:07;;;;;;;;;;;;;;;16.66;50.02;101030.50;5061180;28;1951;-45
2023/11/17 02:01:34;;;;;;;;;;;;;;;16.44;50.53;101019.69;5067261;28;1113;-47
2023/11/17 02:04:00;;;;;;;;;;;;;;;17.30;48.62;101009.28;5097413;28;1000;-44
2023/11/17 02:06:32;;;;;;;;;;;;;;;17.36;48.30;101002.69;5079705;28;1129;-46
2023/11/17 02:09:00;;;;;;;;;;;;;;;16.80;49.45;101008.03;5060052;28;1102;-48
2023/11/17 02:11:30;;;;;;;;;;;;;;;16.51;50.10;101002.97;5049395;28;1199;-43
2023/11/17 02:13:56;;;;;;;;;;;;;;;16.45;50.33;101009.53;5078052;28;1118;-42
2023/11/17 02:16:24;;;;;;;;;;;;;;;17.76;47.42;101009.28;5061029;28;1391;-46
2023/11/17 02:18:50;;;;;;;;;;;;;;;17.03;49.05;101024.06;5070980;28;1959;-44
2023/11/17 02:21:19;;;;;;;;;;;;;;;16.62;49.91;101015.66;5056440;28;1296;-44
2023/11/17 02:23:45;;;;;;;;;;;;;;;16.65;50.18;101003.28;5064406;28;1063;-44
2023/11/17 02:26:18;;;;;;;;;;;;;;;17.42;47.94;100993.34;5079627;28;1181;-46
2023/11/17 02:28:50;;;;;;;;;;;;;;;16.76;49.65;100983.84;5079454;28;1352;-46
2023/11/17 02:31:18;;;;;;;;;;;;;;;16.58;50.03;100998.06;5066372;28;1121;-43
2023/11/17 02:33:48;;;;;;;;;;;;;;;17.47;48.34;100991.72;5068697;28;1174;-44
2023/11/17 02:36:17;;;;;;;;;;;;;;;17.21;48.60;100986.19;5066798;28;1157;-45
2023/11/17 02:39:25;;;;;;;;;;;;;;;16.79;49.70;100981.66;5066143;28;1907;-46
2023/11/17 02:41:57;;;;;;;;;;;;;;;16.50;50.29;100990.34;5070328;28;1071;-45
2023/11/17 02:44:23;;;;;;;;;;;;;;;17.78;47.46;100971.34;5096706;28;1145;-48
2023/11/17 02:46:58;;;;;;;;;;;;;;;17.10;48.84;100980.66;5066658;28;1308;-45
2023/11/17 02:49:29;;;;;;;;;;;;;;;16.71;49.63;100980.28;5078146;28;849;-47
2023/11/17 02:51:55;;;;;;;;;;;;;;;16.48;50.14;100978.78;5083946;28;1094;-49
2023/11/17 02:54:21;;;;;;;;;;;;;;;16.62;50.24;100976.38;5088914;28;1538;-48
2023/11/17 02:56:47;;;;;;;;;;;;;;;17.66;47.35;100970.00;5076946;28;1133;-47
2023/11/17 02:59:13;;;;;;;;;;;;;;;16.91;49.21;100965.78;5066033;28;1910;-43
2023/11/17 03:01:39;;;;;;;;;;;;;;;16.56;50.03;100970.03;5065472;28;996;-43
2023/11/17 03:04:06;;;;;;;;;;;;;;;17.18;48.81;100951.84;5089530;28;1146;-50
2023/11/17 03:06:38;;;;;;;;;;;;;;;17.19;48.50;100947.16;5073271;28;1119;-47
2023/11/17 03:09:04;;;;;;;;;;;;;;;16.74;49.76;100944.03;5085377;28;1089;-50
2023/11/17 03:11:30;;;;;;;;;;;;;;;17.68;47.64;100943.84;5077866;28;1182;-48
2023/11/17 03:13:55;;;;;;;;;;;;;;;17.10;48.74;100944.13;5076532;28;1096;-45
2023/11/17 03:16:24;;;;;;;;;;;;;;;16.69;49.60;100928.38;5078053;28;1222;-47
2023/11/17 03:18:52;;;;;;;;;;;;;;;16.88;49.53;100919.63;5078422;28;1906;-44
2023/11/17 03:21:23;;;;;;;;;;;;;;;17.50;47.85;100903.16;5081073;28;1117;-47
2023/11/17 03:23:50;;;;;;;;;;;;;;;16.90;49.14;100922.94;5084423;28;1055;-45
2023/11/17 03:26:17;;;;;;;;;;;;;;;16.58;49.80;100934.94;5061175;28;1083;-48
2023/11/17 03:28:42;;;;;;;;;;;;;;;17.37;48.15;100938.38;5068689;28;1107;-49
2023/11/17 03:31:13;;;;;;;;;;;;;;;17.07;48.55;100939.19;5061921;28;1146;-47
2023/11/17 03:33:45;;;;;;;;;;;;;;;16.73;49.76;100943.22;5096800;28;1143;-48
2023/11/17 03:36:11;;;;;;;;;;;;;;;17.00;49.20;100938.59;5082547;28;1244;-47
2023/11/17 03:38:37;;;;;;;;;;;;;;;17.40;47.96;100943.34;5096109;28;1970;-49
2023/11/17 03:41:02;;;;;;;;;;;;;;;16.85;49.33;100953.13;5096358;28;1061;-43
2023/11/17 03:43:28;;;;;;;;;;;;;;;16.56;50.14;100939.84;5085051;28;1000;-47
2023/11/17 03:45:53;;;;;;;;;;;;;;;17.32;48.38;100934.78;5071279;28;1174;-46
2023/11/17 03:48:22;;;;;;;;;;;;;;;17.32;48.31;100940.28;5069539;28;1306;-45
2023/11/17 03:50:49;;;;;;;;;;;;;;;16.77;49.65;100933.34;5090859;28;1090;-48
2023/11/17 03:53:15;;;;;;;;;;;;;;;16.60;50.00;100943.72;5057775;28;1044;-44
2023/11/17 03:55:44;;;;;;;;;;;;;;;16.85;49.62;100942.13;5063332;28;1388;-47
2023/11/17 03:58:09;;;;;;;;;;;;;;;17.56;47.58;100926.81;5083697;28;1960;-46
2023/11/17 04:00:35;;;;;;;;;;;;;;;16.86;49.11;100917.16;5063416;28;1496;-46
2023/11/17 04:03:04;;;;;;;;;;;;;;;17.40;48.42;100923.25;5096006;28;1095;-47
2023/11/17 04:05:32;;;;;;;;;;;;;;;17.22;48.49;100903.47;5091100;28;1066;-46
2023/11/17 04:07:57;;;;;;;;;;;;;;;16.79;49.47;100910.25;5095959;28;1066;-45
2023/11/17 04:10:24;;;;;;;;;;;;;;;16.74;49.71;100908.31;5089686;28;1128;-47
2023/11/17 04:12:53;;;;;;;;;;;;;;;17.49;47.91;100907.00;5093810;28;1328;-49
2023/11/17 04:15:18;;;;;;;;;;;;;;;16.85;49.38;100898.19;5077545;28;1062;-47
2023/11/17 04:17:44;;;;;;;;;;;;;;;16.61;49.84;100895.94;5077813;28;1977;-49
2023/11/17 04:20:14;;;;;;;;;;;;;;;16.45;50.31;100886.00;5076407;28;1453;-49
2023/11/17 04:22:40;;;;;;;;;;;;;;;16.79;49.53;100899.25;5090378;28;904;-46
2023/11/17 04:25:05;;;;;;;;;;;;;;;17.54;47.67;100890.53;5087019;28;1075;-48
2023/11/17 04:27:31;;;;;;;;;;;;;;;16.86;49.38;100897.09;5081762;28;2564;-46
2023/11/17 04:29:56;;;;;;;;;;;;;;;16.55;50.02;100888.78;5094705;28;916;-45
2023/11/17 04:32:22;;;;;;;;;;;;;;;17.09;49.04;100893.84;5095587;28;1055;-47
2023/11/17 04:34:49;;;;;;;;;;;;;;;16.97;49.12;100879.56;5084046;28;1122;-45
2023/11/17 04:37:14;;;;;;;;;;;;;;;16.54;50.02;100865.19;5092006;28;1914;-45
2023/11/17 04:39:40;;;;;;;;;;;;;;;17.05;48.91;100865.25;5095574;28;1086;-50
2023/11/17 04:42:05;;;;;;;;;;;;;;;17.43;47.91;100865.81;5081917;28;1237;-48
2023/11/17 04:44:33;;;;;;;;;;;;;;;16.81;49.38;100870.44;5095852;28;1195;-49
2023/11/17 04:46:59;;;;;;;;;;;;;;;16.56;50.21;100868.47;5075984;28;1079;-52
2023/11/17 04:49:24;;;;;;;;;;;;;;;17.49;47.92;100874.88;5084539;28;873;-48
2023/11/17 04:51:50;;;;;;;;;;;;;;;16.89;49.36;100878.16;5081791;28;1095;-51
2023/11/17 04:54:15;;;;;;;;;;;;;;;16.79;49.44;100878.13;5086693;28;1229;-49
2023/11/17 04:56:41;;;;;;;;;;;;;;;16.67;50.00;100872.88;5079829;28;2113;-56
2023/11/17 04:59:12;;;;;;;;;;;;;;;17.34;48.63;100861.97;5095451;28;1905;-49
2023/11/17 05:01:38;;;;;;;;;;;;;;;17.00;49.09;100867.19;5096396;28;1221;-53
2023/11/17 05:04:04;;;;;;;;;;;;;;;16.53;50.29;100869.03;5098930;28;1085;-55
2023/11/17 05:06:29;;;;;;;;;;;;;;;16.51;50.38;100865.72;5085245;28;1111;-56
2023/11/17 05:08:55;;;;;;;;;;;;;;;17.40;47.98;100866.38;5090069;28;1142;-56
2023/11/17 05:11:27;;;;;;;;;;;;;;;16.74;49.88;100870.69;5094461;28;1154;-56
2023/11/17 05:13:52;;;;;;;;;;;;;;;16.47;50.49;100853.66;5095330;28;841;-56
2023/11/17 05:16:18;;;;;;;;;;;;;;;16.63;50.34;100849.00;5097760;28;1038;-54
2023/11/17 05:18:43;;;;;;;;;;;;;;;17.41;48.20;100839.69;5078298;28;1989;-54
2023/11/17 05:21:09;;;;;;;;;;;;;;;16.73;49.78;100849.00;5078770;28;1107;-56
2023/11/17 05:23:34;;;;;;;;;;;;;;;16.45;50.72;100844.84;5091829;28;1026;-54
2023/11/17 05:26:03;;;;;;;;;;;;;;;16.67;50.01;100850.91;5079426;28;1134;-53
2023/11/17 05:28:28;;;;;;;;;;;;;;;17.49;47.98;100852.03;5090278;28;2221;-55
2023/11/17 05:30:55;;;;;;;;;;;;;;;17.48;48.36;100842.16;5079296;28;1009;-55
2023/11/17 05:33:21;;;;;;;;;;;;;;;17.14;48.58;100839.97;5085028;28;1305;-54
2023/11/17 05:35:47;;;;;;;;;;;;;;;16.84;48.20;100838.88;5084561;28;1070;-55
2023/11/17 05:38:13;;;;;;;;;;;;;;;16.62;47.66;100850.94;5094228;28;1906;-54
2023/11/17 05:40:40;;;;;;;;;;;;;;;16.43;47.13;100837.69;5090230;28;1042;-54
2023/11/17 05:43:06;;;;;;;;;;;;;;;16.32;46.65;100836.03;5092075;28;1030;-53
2023/11/17 05:45:31;;;;;;;;;;;;;;;16.20;46.40;100832.69;5094657;28;1006;-55
2023/11/17 05:47:57;;;;;;;;;;;;;;;16.19;46.12;100826.41;5083400;28;1108;-57
2023/11/17 05:50:22;;;;;;;;;;;;;;;16.06;45.92;100826.88;5092752;28;870;-57
2023/11/17 05:52:48;;;;;;;;;;;;;;;16.25;45.63;100825.31;5083864;28;1170;-53
2023/11/17 05:55:16;;;;;;;;;;;;;;;16.16;45.50;100831.59;5097434;28;1247;-53
2023/11/17 05:57:42;;;;;;;;;;;;;;;16.03;45.57;100832.91;5095255;28;1926;-55
2023/11/17 06:00:09;;;;;;;;;;;;;;;15.96;44.95;100819.44;5079248;28;1138;-54
2023/11/17 06:02:37;;;;;;;;;;;;;;;15.91;44.93;100813.97;5095968;28;1013;-54
2023/11/17 06:05:02;;;;;;;;;;;;;;;15.85;45.09;100825.97;5082720;28;1146;-53
2023/11/17 06:07:28;;;;;;;;;;;;;;;15.81;44.63;100827.59;5088443;28;1460;-50
2023/11/17 06:09:54;;;;;;;;;;;;;;;15.70;44.70;100822.06;5079664;28;1118;-51
2023/11/17 06:12:19;;;;;;;;;;;;;;;15.61;44.84;100825.56;5082217;28;1098;-53
2023/11/17 06:14:45;;;;;;;;;;;;;;;15.65;44.34;100827.50;5078065;28;1106;-53
2023/11/17 06:17:11;;;;;;;;;;;;;;;15.59;44.65;100828.56;5079195;28;1166;-52
2023/11/17 06:19:37;;;;;;;;;;;;;;;15.48;44.58;100835.09;5077164;28;1909;-52
2023/11/17 06:22:06;;;;;;;;;;;;;;;15.48;44.26;100826.88;5085685;28;1170;-53
2023/11/17 06:24:32;;;;;;;;;;;;;;;15.42;44.29;100833.38;5078560;28;1051;-53
2023/11/17 06:26:59;;;;;;;;;;;;;;;15.40;44.05;100825.44;5089725;28;2139;-54
2023/11/17 06:29:25;;;;;;;;;;;;;;;15.34;44.23;100815.53;5090301;28;1011;-51
2023/11/17 06:31:51;;;;;;;;;;;;;;;15.35;43.93;100811.72;5082065;28;1119;-51
2023/11/17 06:34:17;;;;;;;;;;;;;;;15.35;43.94;100809.78;5076353;28;1101;-55
2023/11/17 06:36:44;;;;;;;;;;;;;;;15.26;43.98;100810.56;5081078;28;1225;-51
2023/11/17 06:39:16;;;;;;;;;;;;;;;15.60;44.76;100813.78;5092779;28;1902;-53
2023/11/17 06:41:48;;;;;;;;;;;;;;;16.15;46.61;100808.00;5088705;28;1193;-51
2023/11/17 06:44:14;;;;;;;;;;;;;;;15.65;46.78;100800.09;5081601;28;1074;-54
2023/11/17 06:46:42;;;;;;;;;;;;;;;15.62;45.91;100792.41;5076342;28;1095;-59
2023/11/17 06:49:09;;;;;;;;;;;;;;;15.52;45.46;100798.66;5090641;28;1062;-57
2023/11/17 06:51:40;;;;;;;;;;;;;;;15.38;45.19;100798.31;5076387;28;910;-58
2023/11/17 06:54:10;;;;;;;;;;;;;;;16.25;46.63;100791.56;5092004;28;1250;-58
2023/11/17 06:56:37;;;;;;;;;;;;;;;15.78;46.91;100785.09;5093549;28;1970;-59
2023/11/17 06:59:03;;;;;;;;;;;;;;;15.63;46.48;100788.56;5089557;28;1906;-53
2023/11/17 07:01:28;;;;;;;;;;;;;;;15.51;45.76;100777.00;5076481;28;1210;-59
2023/11/17 07:03:54;;;;;;;;;;;;;;;15.43;45.64;100782.97;5078778;28;1018;-59
2023/11/17 07:06:21;;;;;;;;;;;;;;;15.38;45.13;100779.13;5086544;28;1154;-57
2023/11/17 07:08:47;;;;;;;;;;;;;;;15.36;44.98;100770.34;5092216;28;1115;-59
2023/11/17 07:11:15;;;;;;;;;;;;;;;15.29;44.70;100771.66;5089037;28;1197;-60
2023/11/17 07:13:40;;;;;;;;;;;;;;;16.13;46.07;100756.16;5090436;28;1073;-59
2023/11/17 07:16:12;;;;;;;;;;;;;;;15.67;46.63;100762.28;5075847;28;1113;-60
2023/11/17 07:18:38;;;;;;;;;;;;;;;15.49;46.03;100757.28;5082759;28;1966;-58
2023/11/17 07:21:04;;;;;;;;;;;;;;;15.40;45.81;100748.72;5083124;28;1109;-61
2023/11/17 07:23:30;;;;;;;;;;;;;;;15.32;45.38;100744.56;5082144;28;1381;-56
2023/11/17 07:25:55;;;;;;;;;;;;;;;15.31;44.88;100737.44;5082603;28;998;-56
2023/11/17 07:28:21;;;;;;;;;;;;;;;15.74;45.86;100732.69;5087507;28;2069;-56
2023/11/17 07:30:47;;;;;;;;;;;;;;;15.85;46.76;100730.84;5076031;28;1170;-54
2023/11/17 07:33:16;;;;;;;;;;;;;;;15.62;46.53;100723.06;5096414;28;1122;-56
2023/11/17 07:35:42;;;;;;;;;;;;;;;15.51;46.16;100727.66;5096019;28;1102;-56
2023/11/17 07:38:08;;;;;;;;;;;;;;;15.39;45.63;100723.25;5075760;28;1874;-56
2023/11/17 07:40:34;;;;;;;;;;;;;;;15.29;45.31;100720.47;5089745;28;1106;-54
2023/11/17 07:42:59;;;;;;;;;;;;;;;15.29;44.85;100719.63;5089155;28;1138;-56
2023/11/17 07:45:25;;;;;;;;;;;;;;;15.22;44.66;100703.41;5088967;28;1042;-57
2023/11/17 07:47:51;;;;;;;;;;;;;;;15.85;46.26;100702.59;5089181;28;1116;-56
2023/11/17 07:50:19;;;;;;;;;;;;;;;15.44;46.54;100710.66;5084240;28;1027;-57
2023/11/17 07:52:44;;;;;;;;;;;;;;;15.43;45.57;100703.50;5071756;28;1159;-58
2023/11/17 07:55:13;;;;;;;;;;;;;;;15.30;45.47;100699.34;5082897;28;1364;-56
2023/11/17 07:57:39;;;;;;;;;;;;;;;15.22;45.20;100698.78;5095035;28;2201;-59
2023/11/17 08:00:13;;;;;;;;;;;;;;;15.22;44.65;100696.03;5082370;28;1154;-58
2023/11/17 08:02:38;;;;;;;;;;;;;;;15.15;44.54;100694.63;5090692;28;1335;-58
2023/11/17 08:05:09;;;;;;;;;;;;;;;15.16;44.21;100699.81;5095996;28;1374;-59
2023/11/17 08:07:35;;;;;;;;;;;;;;;15.40;44.97;100697.50;5085495;28;1168;-57
2023/11/17 08:10:00;;;;;;;;;;;;;;;15.98;46.37;100693.03;5093290;28;1177;-60
2023/11/17 08:12:26;;;;;;;;;;;;;;;15.54;46.54;100689.59;5075522;28;1050;-57
2023/11/17 08:14:55;;;;;;;;;;;;;;;15.35;46.28;100691.97;5078502;28;1099;-53
2023/11/17 08:17:22;;;;;;;;;;;;;;;15.33;45.47;100680.47;5085266;28;1149;-57
2023/11/17 08:19:47;;;;;;;;;;;;;;;15.26;45.04;100677.13;5089016;28;1101;-57
2023/11/17 08:22:13;;;;;;;;;;;;;;;15.26;44.58;100687.28;5085937;28;1134;-53
2023/11/17 08:24:39;;;;;;;;;;;;;;;15.16;44.79;100688.06;5081354;28;1050;-54
2023/11/17 08:27:05;;;;;;;;;;;;;;;15.85;46.31;100681.50;5089938;28;2049;-53
2023/11/17 08:29:31;;;;;;;;;;;;;;;15.42;46.59;100686.25;5091404;28;1058;-53
2023/11/17 08:31:56;;;;;;;;;;;;;;;15.34;45.87;100684.03;5075833;28;1086;-52
2023/11/17 08:34:22;;;;;;;;;;;;;;;15.28;45.54;100685.94;5086508;28;1003;-56
2023/11/17 08:36:48;;;;;;;;;;;;;;;15.15;45.20;100678.19;5083391;28;1035;-54
2023/11/17 08:39:25;;;;;;;;;;;;;;;15.11;44.92;100669.69;5081065;28;1901;-54
2023/11/17 08:41:51;;;;;;;;;;;;;;;16.12;46.56;100661.25;5079665;28;1073;-56
2023/11/17 08:44:17;;;;;;;;;;;;;;;15.54;46.89;100661.34;5092288;28;1090;-56
2023/11/17 08:46:42;;;;;;;;;;;;;;;15.44;46.45;100658.59;5081434;28;1244;-53
2023/11/17 08:49:08;;;;;;;;;;;;;;;15.29;45.76;100657.44;5086084;28;966;-54
2023/11/17 08:51:33;;;;;;;;;;;;;;;15.26;45.41;100649.75;5098155;28;1062;-55
2023/11/17 08:53:59;;;;;;;;;;;;;;;15.30;45.15;100645.38;5098213;28;1189;-52
2023/11/17 08:56:24;;;;;;;;;;;;;;;15.89;46.65;100646.13;5089310;28;2081;-56
2023/11/17 08:58:50;;;;;;;;;;;;;;;15.55;46.57;100650.13;5097827;28;1971;-53
2023/11/17 09:01:16;;;;;;;;;;;;;;;15.33;46.30;100644.03;5098432;28;1043;-58
2023/11/17 09:03:42;;;;;;;;;;;;;;;15.31;45.59;100641.56;5079373;28;1050;-60
2023/11/17 09:06:08;;;;;;;;;;;;;;;15.26;45.13;100638.78;5078491;28;1012;-59
2023/11/17 09:08:33;;;;;;;;;;;;;;;15.16;44.96;100616.84;5097126;28;1016;-59
2023/11/17 09:10:59;;;;;;;;;;;;;;;15.46;45.44;100618.03;5086337;28;1058;-59
2023/11/17 09:13:25;;;;;;;;;;;;;;;15.71;46.64;100604.41;5095726;28;1163;-58
2023/11/17 09:15:50;;;;;;;;;;;;;;;15.42;46.46;100605.97;5084389;28;1343;-58
2023/11/17 09:18:15;;;;;;;;;;;;;;;15.33;45.79;100600.19;5096672;28;1979;-58
2023/11/17 09:20:42;;;;;;;;;;;;;;;15.22;45.68;100591.09;5098525;28;1102;-58
2023/11/17 09:23:07;;;;;;;;;;;;;;;15.90;45.95;100569.06;5098552;28;1102;-58
2023/11/17 09:25:33;;;;;;;;;;;;;;;15.74;47.10;100556.44;5098638;28;1209;-58
2023/11/17 09:27:58;;;;;;;;;;;;;;;15.55;46.53;100553.38;5085789;28;2021;-58
2023/11/17 09:30:24;;;;;;;;;;;;;;;15.31;46.04;100559.38;5078397;28;1173;-58
2023/11/17 09:32:55;;;;;;;;;;;;;;;15.99;46.62;100552.91;5083826;28;1053;-58
2023/11/17 09:35:21;;;;;;;;;;;;;;;15.61;46.70;100546.00;5098992;28;1130;-50
2023/11/17 09:37:51;;;;;;;;;;;;;;;15.43;46.38;100539.13;5084711;28;1980;-60
2023/11/17 09:40:23;;;;;;;;;;;;;;;15.34;45.65;100531.41;5084991;28;843;-60
2023/11/17 09:42:58;;;;;;;;;;;;;;;15.31;45.30;100534.72;5078434;28;1098;-60
2023/11/17 09:45:27;;;;;;;;;;;;;;;15.26;44.99;100522.91;5072329;28;1137;-59
2023/11/17 09:47:54;;;;;;;;;;;;;;;15.19;44.76;100521.28;5077667;28;1178;-59
2023/11/17 09:50:20;;;;;;;;;;;;;;;15.19;44.47;100518.53;5080412;28;1070;-59
2023/11/17 09:52:49;;;;;;;;;;;;;;;15.10;44.53;100509.19;5088679;28;928;-58
2023/11/17 09:55:16;;;;;;;;;;;;;;;15.93;45.64;100503.81;5091422;28;1155;-58
2023/11/17 09:57:42;;;;;;;;;;;;;;;15.68;46.55;100506.28;5090467;28;2232;-59
2023/11/17 10:00:17;;;;;;;;;;;;;;;15.34;46.56;100492.25;5063107;28;1078;-59
2023/11/17 10:02:50;;;;;;;;;;;;;;;15.20;45.83;100481.81;5083812;28;1059;-56
2023/11/17 10:05:17;;;;;;;;;;;;;;;15.30;45.30;100491.97;5092026;28;993;-57
2023/11/17 10:07:44;;;;;;;;;;;;;;;15.50;45.61;100490.34;5088785;28;1366;-58
2023/11/17 10:10:14;;;;;;;;;;;;;;;15.76;46.70;100477.47;5094333;28;1082;-55
2023/11/17 10:12:43;;;;;;;;;;;;;;;15.51;46.28;100483.78;5059988;28;1036;-61
2023/11/17 10:15:10;;;;;;;;;;;;;;;15.31;46.25;100485.41;5078203;28;1158;-58
2023/11/17 10:17:36;;;;;;;;;;;;;;;15.37;45.42;100487.03;5097485;28;1909;-58
2023/11/17 10:20:03;;;;;;;;;;;;;;;15.22;45.35;100478.81;5075675;28;1182;-58
2023/11/17 10:22:29;;;;;;;;;;;;;;;15.19;44.94;100479.34;5089750;28;1158;-58
2023/11/17 10:24:57;;;;;;;;;;;;;;;15.17;44.59;100470.59;5086134;28;1040;-59
2023/11/17 10:27:23;;;;;;;;;;;;;;;16.06;46.19;100478.53;5063092;28;2588;-57
2023/11/17 10:29:48;;;;;;;;;;;;;;;15.55;46.59;100479.38;5066815;28;1241;-59
2023/11/17 10:32:14;;;;;;;;;;;;;;;15.42;46.24;100466.22;5095586;28;1371;-54
2023/11/17 10:34:41;;;;;;;;;;;;;;;15.32;45.54;100461.56;5070153;28;1395;-57
2023/11/17 10:37:09;;;;;;;;;;;;;;;15.22;45.44;100460.47;5084074;28;1327;-56
2023/11/17 10:39:50;;;;;;;;;;;;;;;15.20;45.00;100459.09;5092145;28;1984;-56
2023/11/17 10:42:16;;;;;;;;;;;;;;;15.48;45.79;100455.00;5096559;28;1013;-57
2023/11/17 10:44:42;;;;;;;;;;;;;;;15.69;46.63;100447.59;5097129;28;1174;-57
2023/11/17 10:47:07;;;;;;;;;;;;;;;15.43;46.17;100440.47;5078091;28;1073;-58
2023/11/17 10:49:33;;;;;;;;;;;;;;;15.33;46.00;100433.91;5088640;28;1368;-57
2023/11/17 10:51:59;;;;;;;;;;;;;;;15.25;45.48;100414.44;5091997;28;1140;-57
2023/11/17 10:54:24;;;;;;;;;;;;;;;15.24;45.21;100419.09;5087669;28;1157;-58
2023/11/17 10:56:51;;;;;;;;;;;;;;;15.12;44.86;100430.31;5087543;28;2540;-55
2023/11/17 10:59:18;;;;;;;;;;;;;;;15.12;44.63;100426.75;5088579;28;1976;-58
2023/11/17 11:01:51;;;;;;;;;;;;;;;15.05;44.73;100425.13;5082227;28;1091;-60
2023/11/17 11:04:24;;;;;;;;;;;;;;;15.86;45.46;100408.13;5095346;28;1152;-58
2023/11/17 11:06:57;;;;;;;;;;;;;;;15.73;46.62;100404.00;5096531;28;1037;-58
2023/11/17 11:09:33;;;;;;;;;;;;;;;15.40;46.51;100404.31;5084135;28;1011;-57
2023/11/17 11:11:58;;;;;;;;;;;;;;;15.37;45.57;100384.84;5083823;28;1134;-59
2023/11/17 11:14:27;;;;;;;;;;;;;;;15.23;45.48;100381.84;5077491;28;1117;-57
2023/11/17 11:16:52;;;;;;;;;;;;;;;15.24;44.99;100372.53;5082161;28;1078;-55
2023/11/17 11:19:19;;;;;;;;;;;;;;;15.10;44.86;100375.00;5070026;28;1976;-57
2023/11/17 11:21:48;;;;;;;;;;;;;;;15.13;44.71;100393.63;5073129;28;1047;-57
2023/11/17 11:24:14;;;;;;;;;;;;;;;15.70;46.35;100375.22;5064745;28;1038;-59
2023/11/17 11:26:39;;;;;;;;;;;;;;;15.42;46.46;100373.06;5091333;28;2704;-59
2023/11/17 11:29:05;;;;;;;;;;;;;;;15.22;45.88;100364.59;5080892;28;1015;-59
2023/11/17 11:31:32;;;;;;;;;;;;;;;15.20;45.45;100371.44;5096282;28;1034;-59
2023/11/17 11:33:58;;;;;;;;;;;;;;;15.21;45.00;100370.34;5082423;28;1133;-57
2023/11/17 11:36:23;;;;;;;;;;;;;;;15.87;46.20;100366.72;5083687;28;1038;-58
2023/11/17 11:38:49;;;;;;;;;;;;;;;15.45;46.48;100350.63;5075433;28;1963;-58
2023/11/17 11:41:22;;;;;;;;;;;;;;;15.30;46.09;100360.47;5077601;28;863;-62
2023/11/17 11:43:54;;;;;;;;;;;;;;;15.24;45.30;100356.09;5081942;28;1050;-60
2023/11/17 11:46:20;;;;;;;;;;;;;;;15.17;44.97;100344.63;5094567;28;1106;-59
2023/11/17 11:48:49;;;;;;;;;;;;;;;15.14;45.07;100350.66;5091324;28;1166;-59
2023/11/17 11:51:15;;;;;;;;;;;;;;;15.10;44.78;100347.63;5091755;28;1372;-59
2023/11/17 11:53:44;;;;;;;;;;;;;;;15.10;44.40;100346.81;5077296;28;1107;-59
2023/11/17 11:56:14;;;;;;;;;;;;;;;15.06;44.41;100341.84;5074479;28;2562;-59
2023/11/17 11:58:42;;;;;;;;;;;;;;;15.96;45.60;100336.78;5086405;28;1974;-58
2023/11/17 12:01:08;;;;;;;;;;;;;;;15.39;46.55;100334.19;5080580;28;1018;-59
2023/11/17 12:03:34;;;;;;;;;;;;;;;15.33;46.09;100331.72;5085386;28;1189;-58
2023/11/17 12:06:00;;;;;;;;;;;;;;;15.17;45.39;100306.28;5094446;28;948;-56
2023/11/17 12:08:29;;;;;;;;;;;;;;;15.46;45.72;100314.72;5095651;28;1069;-58
2023/11/17 12:11:12;;;;;;;;;;;;;;;15.82;46.48;100311.91;5080267;28;1025;-58
2023/11/17 12:13:42;;;;;;;;;;;;;;;15.50;46.41;100309.47;5094215;28;1062;-58
2023/11/17 12:16:09;;;;;;;;;;;;;;;15.36;45.99;100304.59;5096533;28;1038;-58
2023/11/17 12:18:34;;;;;;;;;;;;;;;15.19;45.73;100301.31;5096042;28;1984;-58
2023/11/17 12:21:19;;;;;;;;;;;;;;;15.22;45.02;100298.03;5100075;28;1161;-59
2023/11/17 12:23:45;;;;;;;;;;;;;;;15.64;45.30;100299.59;5099054;28;1309;-60
2023/11/17 12:26:10;;;;;;;;;;;;;;;15.65;46.66;100290.25;5098831;28;2200;-59
2023/11/17 12:28:36;;;;;;;;;;;;;;;15.33;46.64;100280.50;5090775;28;1375;-59
2023/11/17 12:31:03;;;;;;;;;;;;;;;15.30;45.98;100277.50;5092853;28;1074;-59
2023/11/17 12:33:29;;;;;;;;;;;;;;;15.21;45.25;100278.03;5069008;28;1335;-58
2023/11/17 12:35:55;;;;;;;;;;;;;;;15.23;44.80;100280.50;5099659;28;1370;-59
2023/11/17 12:38:20;;;;;;;;;;;;;;;15.10;44.89;100273.69;5079291;28;1984;-59
2023/11/17 12:40:57;;;;;;;;;;;;;;;15.10;44.61;100278.34;5092780;28;1071;-60
2023/11/17 12:43:22;;;;;;;;;;;;;;;15.29;44.95;100282.16;5099304;28;1260;-57
2023/11/17 12:45:48;;;;;;;;;;;;;;;15.64;46.08;100269.47;5085540;28;1315;-58
2023/11/17 12:48:17;;;;;;;;;;;;;;;15.48;45.84;100267.84;5081267;28;1284;-59